sensor_id;sensor_type;location;lat;lon;timestamp;temperature;humidity
14378;DHT22;7272;53.668;9.578;2023-08-08T00:00:06;13.90;99.90
14378;DHT22;7272;53.668;9.578;2023-08-08T00:03:09;13.90;99.90
14378;DHT22;7272;53.668;9.578;2023-08-08T00:06:10;13.90;99.90
14378;DHT22;7272;53.668;9.578;2023-08-08T00:09:12;13.90;99.90
14378;DHT22;7272;53.668;9.578;2023-08-08T00:12:14;13.90;99.90
14378;DHT22;7272;53.668;9.578;2023-08-08T00:15:15;13.90;99.90
14378;DHT22;7272;53.668;9.578;2023-08-08T00:18:16;13.90;99.90
14378;DHT22;7272;53.668;9.578;2023-08-08T00:21:18;13.90;99.90
14378;DHT22;7272;53.668;9.578;2023-08-08T00:24:19;13.90;99.90
14378;DHT22;7272;53.668;9.578;2023-08-08T00:27:21;13.90;99.90
14378;DHT22;7272;53.668;9.578;2023-08-08T00:30:22;13.90;99.90
14378;DHT22;7272;53.668;9.578;2023-08-08T00:33:23;14.00;99.90
14378;DHT22;7272;53.668;9.578;2023-08-08T00:36:24;13.90;99.90
14378;DHT22;7272;53.668;9.578;2023-08-08T00:39:26;13.90;99.90
14378;DHT22;7272;53.668;9.578;2023-08-08T00:42:27;13.90;99.90
14378;DHT22;7272;53.668;9.578;2023-08-08T00:45:29;13.90;99.90
14378;DHT22;7272;53.668;9.578;2023-08-08T00:48:31;13.90;99.90
14378;DHT22;7272;53.668;9.578;2023-08-08T00:51:34;13.90;99.90
14378;DHT22;7272;53.668;9.578;2023-08-08T00:54:36;13.90;99.90
14378;DHT22;7272;53.668;9.578;2023-08-08T00:57:37;13.90;99.90
14378;DHT22;7272;53.668;9.578;2023-08-08T01:00:38;13.90;99.90
14378;DHT22;7272;53.668;9.578;2023-08-08T01:03:40;14.00;99.90
14378;DHT22;7272;53.668;9.578;2023-08-08T01:06:46;14.00;99.90
14378;DHT22;7272;53.668;9.578;2023-08-08T01:09:55;14.00;99.90
14378;DHT22;7272;53.668;9.578;2023-08-08T01:13:00;14.00;99.90
14378;DHT22;7272;53.668;9.578;2023-08-08T01:16:03;14.00;99.90
14378;DHT22;7272;53.668;9.578;2023-08-08T01:19:07;14.00;99.90
14378;DHT22;7272;53.668;9.578;2023-08-08T01:22:25;14.10;99.90
14378;DHT22;7272;53.668;9.578;2023-08-08T01:25:26;14.20;99.90
14378;DHT22;7272;53.668;9.578;2023-08-08T01:28:28;14.20;99.90
14378;DHT22;7272;53.668;9.578;2023-08-08T01:31:29;14.10;99.90
14378;DHT22;7272;53.668;9.578;2023-08-08T01:34:30;14.10;99.90
14378;DHT22;7272;53.668;9.578;2023-08-08T01:37:36;14.00;99.90
14378;DHT22;7272;53.668;9.578;2023-08-08T01:40:41;14.00;99.90
14378;DHT22;7272;53.668;9.578;2023-08-08T01:43:44;14.00;99.90
14378;DHT22;7272;53.668;9.578;2023-08-08T01:46:46;14.00;99.90
14378;DHT22;7272;53.668;9.578;2023-08-08T01:49:48;14.10;99.90
14378;DHT22;7272;53.668;9.578;2023-08-08T01:52:49;14.00;99.90
14378;DHT22;7272;53.668;9.578;2023-08-08T01:55:51;14.00;99.90
14378;DHT22;7272;53.668;9.578;2023-08-08T01:58:53;13.90;99.90
14378;DHT22;7272;53.668;9.578;2023-08-08T02:01:54;13.90;99.90
14378;DHT22;7272;53.668;9.578;2023-08-08T02:04:56;13.90;99.90
14378;DHT22;7272;53.668;9.578;2023-08-08T02:07:57;13.80;99.90
14378;DHT22;7272;53.668;9.578;2023-08-08T02:10:59;13.80;99.90
14378;DHT22;7272;53.668;9.578;2023-08-08T02:14:00;13.80;99.90
14378;DHT22;7272;53.668;9.578;2023-08-08T02:17:02;13.90;99.90
14378;DHT22;7272;53.668;9.578;2023-08-08T02:20:04;13.90;99.90
14378;DHT22;7272;53.668;9.578;2023-08-08T02:23:06;13.90;99.90
14378;DHT22;7272;53.668;9.578;2023-08-08T02:26:07;13.90;99.90
14378;DHT22;7272;53.668;9.578;2023-08-08T02:29:09;13.90;99.90
14378;DHT22;7272;53.668;9.578;2023-08-08T02:32:10;13.90;99.90
14378;DHT22;7272;53.668;9.578;2023-08-08T02:35:12;13.90;99.90
14378;DHT22;7272;53.668;9.578;2023-08-08T02:38:13;13.90;99.90
14378;DHT22;7272;53.668;9.578;2023-08-08T02:41:15;14.00;99.90
14378;DHT22;7272;53.668;9.578;2023-08-08T02:44:17;14.10;99.90
14378;DHT22;7272;53.668;9.578;2023-08-08T02:47:20;14.10;99.90
14378;DHT22;7272;53.668;9.578;2023-08-08T02:50:21;14.10;99.90
14378;DHT22;7272;53.668;9.578;2023-08-08T02:53:22;14.10;99.90
14378;DHT22;7272;53.668;9.578;2023-08-08T02:56:24;14.10;99.90
14378;DHT22;7272;53.668;9.578;2023-08-08T02:59:27;14.10;99.90
14378;DHT22;7272;53.668;9.578;2023-08-08T03:02:28;14.10;99.90
14378;DHT22;7272;53.668;9.578;2023-08-08T03:05:30;14.10;99.90
14378;DHT22;7272;53.668;9.578;2023-08-08T03:08:31;14.20;99.90
14378;DHT22;7272;53.668;9.578;2023-08-08T03:11:34;14.40;99.90
14378;DHT22;7272;53.668;9.578;2023-08-08T03:14:39;14.30;99.90
14378;DHT22;7272;53.668;9.578;2023-08-08T03:17:40;14.20;99.90
14378;DHT22;7272;53.668;9.578;2023-08-08T03:20:42;14.20;99.90
14378;DHT22;7272;53.668;9.578;2023-08-08T03:23:44;14.20;99.90
14378;DHT22;7272;53.668;9.578;2023-08-08T03:26:46;14.20;99.90
14378;DHT22;7272;53.668;9.578;2023-08-08T03:29:48;14.10;99.90
14378;DHT22;7272;53.668;9.578;2023-08-08T03:32:51;14.10;99.90
14378;DHT22;7272;53.668;9.578;2023-08-08T03:35:52;14.10;99.90
14378;DHT22;7272;53.668;9.578;2023-08-08T03:38:53;14.10;99.90
14378;DHT22;7272;53.668;9.578;2023-08-08T03:41:55;14.10;99.90
14378;DHT22;7272;53.668;9.578;2023-08-08T03:44:56;14.10;99.90
14378;DHT22;7272;53.668;9.578;2023-08-08T03:47:57;14.10;99.90
14378;DHT22;7272;53.668;9.578;2023-08-08T03:50:58;14.00;99.90
14378;DHT22;7272;53.668;9.578;2023-08-08T03:54:00;14.00;99.90
14378;DHT22;7272;53.668;9.578;2023-08-08T03:57:01;14.00;99.90
14378;DHT22;7272;53.668;9.578;2023-08-08T04:00:04;14.00;99.90
14378;DHT22;7272;53.668;9.578;2023-08-08T04:03:14;14.00;99.90
14378;DHT22;7272;53.668;9.578;2023-08-08T04:06:16;14.10;99.90
14378;DHT22;7272;53.668;9.578;2023-08-08T04:09:17;14.20;99.90
14378;DHT22;7272;53.668;9.578;2023-08-08T04:12:19;14.10;99.90
14378;DHT22;7272;53.668;9.578;2023-08-08T04:15:20;14.10;99.90
14378;DHT22;7272;53.668;9.578;2023-08-08T04:18:21;14.00;99.90
14378;DHT22;7272;53.668;9.578;2023-08-08T04:21:22;14.00;99.90
14378;DHT22;7272;53.668;9.578;2023-08-08T04:24:25;14.00;99.90
14378;DHT22;7272;53.668;9.578;2023-08-08T04:27:26;14.00;99.90
14378;DHT22;7272;53.668;9.578;2023-08-08T04:30:28;14.00;99.90
14378;DHT22;7272;53.668;9.578;2023-08-08T04:33:29;14.00;99.90
14378;DHT22;7272;53.668;9.578;2023-08-08T04:36:30;14.10;99.90
14378;DHT22;7272;53.668;9.578;2023-08-08T04:39:31;14.20;99.90
14378;DHT22;7272;53.668;9.578;2023-08-08T04:42:33;14.20;99.90
14378;DHT22;7272;53.668;9.578;2023-08-08T04:45:34;14.10;99.90
14378;DHT22;7272;53.668;9.578;2023-08-08T04:48:36;14.10;99.90
14378;DHT22;7272;53.668;9.578;2023-08-08T04:51:38;14.10;99.90
14378;DHT22;7272;53.668;9.578;2023-08-08T04:54:39;14.10;99.90
14378;DHT22;7272;53.668;9.578;2023-08-08T04:57:41;14.10;99.90
14378;DHT22;7272;53.668;9.578;2023-08-08T05:00:42;14.10;99.90
14378;DHT22;7272;53.668;9.578;2023-08-08T05:03:43;14.30;99.90
14378;DHT22;7272;53.668;9.578;2023-08-08T05:06:44;14.40;99.90
14378;DHT22;7272;53.668;9.578;2023-08-08T05:09:46;14.40;99.90
14378;DHT22;7272;53.668;9.578;2023-08-08T05:12:48;14.40;99.90
14378;DHT22;7272;53.668;9.578;2023-08-08T05:15:49;14.40;99.90
14378;DHT22;7272;53.668;9.578;2023-08-08T05:18:50;14.50;99.90
14378;DHT22;7272;53.668;9.578;2023-08-08T05:21:52;14.50;99.90
14378;DHT22;7272;53.668;9.578;2023-08-08T05:24:53;14.50;99.90
14378;DHT22;7272;53.668;9.578;2023-08-08T05:27:55;14.50;99.90
14378;DHT22;7272;53.668;9.578;2023-08-08T05:30:56;14.60;99.90
14378;DHT22;7272;53.668;9.578;2023-08-08T05:33:57;14.60;99.90
14378;DHT22;7272;53.668;9.578;2023-08-08T05:36:59;14.70;99.90
14378;DHT22;7272;53.668;9.578;2023-08-08T05:40:00;14.80;99.90
14378;DHT22;7272;53.668;9.578;2023-08-08T05:43:02;14.80;99.90
14378;DHT22;7272;53.668;9.578;2023-08-08T05:46:03;14.80;99.90
14378;DHT22;7272;53.668;9.578;2023-08-08T05:49:04;14.90;99.90
14378;DHT22;7272;53.668;9.578;2023-08-08T05:52:06;14.90;99.90
14378;DHT22;7272;53.668;9.578;2023-08-08T05:55:07;14.90;99.90
14378;DHT22;7272;53.668;9.578;2023-08-08T05:58:09;14.80;99.90
14378;DHT22;7272;53.668;9.578;2023-08-08T06:01:11;14.80;99.90
14378;DHT22;7272;53.668;9.578;2023-08-08T06:04:12;15.00;99.90
14378;DHT22;7272;53.668;9.578;2023-08-08T06:07:14;15.00;99.90
14378;DHT22;7272;53.668;9.578;2023-08-08T06:10:15;15.10;99.90
14378;DHT22;7272;53.668;9.578;2023-08-08T06:13:17;15.30;99.90
14378;DHT22;7272;53.668;9.578;2023-08-08T06:16:18;15.40;99.90
14378;DHT22;7272;53.668;9.578;2023-08-08T06:19:20;15.40;99.90
14378;DHT22;7272;53.668;9.578;2023-08-08T06:22:22;15.30;99.90
14378;DHT22;7272;53.668;9.578;2023-08-08T06:25:23;15.30;99.90
14378;DHT22;7272;53.668;9.578;2023-08-08T06:28:25;15.40;99.90
14378;DHT22;7272;53.668;9.578;2023-08-08T06:31:26;15.50;99.90
14378;DHT22;7272;53.668;9.578;2023-08-08T06:34:27;15.50;99.90
14378;DHT22;7272;53.668;9.578;2023-08-08T06:37:28;15.60;99.90
14378;DHT22;7272;53.668;9.578;2023-08-08T06:40:29;15.70;99.90
14378;DHT22;7272;53.668;9.578;2023-08-08T06:43:31;15.70;99.90
14378;DHT22;7272;53.668;9.578;2023-08-08T06:46:32;15.80;99.90
14378;DHT22;7272;53.668;9.578;2023-08-08T06:49:34;15.90;99.90
14378;DHT22;7272;53.668;9.578;2023-08-08T06:52:35;15.90;99.90
14378;DHT22;7272;53.668;9.578;2023-08-08T06:55:36;15.90;99.90
14378;DHT22;7272;53.668;9.578;2023-08-08T06:58:38;15.90;99.90
14378;DHT22;7272;53.668;9.578;2023-08-08T07:01:39;16.00;99.90
14378;DHT22;7272;53.668;9.578;2023-08-08T07:04:40;16.00;99.90
14378;DHT22;7272;53.668;9.578;2023-08-08T07:07:42;16.00;99.90
14378;DHT22;7272;53.668;9.578;2023-08-08T07:10:45;16.10;99.90
14378;DHT22;7272;53.668;9.578;2023-08-08T07:13:47;16.20;99.90
14378;DHT22;7272;53.668;9.578;2023-08-08T07:16:48;16.30;99.90
14378;DHT22;7272;53.668;9.578;2023-08-08T07:19:49;16.30;99.90
14378;DHT22;7272;53.668;9.578;2023-08-08T07:22:51;16.40;99.90
14378;DHT22;7272;53.668;9.578;2023-08-08T07:25:52;16.60;99.90
14378;DHT22;7272;53.668;9.578;2023-08-08T07:28:54;16.70;99.90
14378;DHT22;7272;53.668;9.578;2023-08-08T07:31:55;16.90;99.90
14378;DHT22;7272;53.668;9.578;2023-08-08T07:34:57;17.10;99.90
14378;DHT22;7272;53.668;9.578;2023-08-08T07:37:58;17.30;99.90
14378;DHT22;7272;53.668;9.578;2023-08-08T07:40:59;17.50;99.90
14378;DHT22;7272;53.668;9.578;2023-08-08T07:44:01;17.60;99.90
14378;DHT22;7272;53.668;9.578;2023-08-08T07:47:02;17.60;99.90
14378;DHT22;7272;53.668;9.578;2023-08-08T07:50:04;17.50;99.90
14378;DHT22;7272;53.668;9.578;2023-08-08T07:53:08;17.40;99.90
14378;DHT22;7272;53.668;9.578;2023-08-08T07:56:09;17.40;99.90
14378;DHT22;7272;53.668;9.578;2023-08-08T07:59:11;17.20;99.90
14378;DHT22;7272;53.668;9.578;2023-08-08T08:02:12;17.10;99.90
14378;DHT22;7272;53.668;9.578;2023-08-08T08:05:13;17.10;99.90
14378;DHT22;7272;53.668;9.578;2023-08-08T08:08:15;17.20;99.90
14378;DHT22;7272;53.668;9.578;2023-08-08T08:11:16;17.10;99.90
14378;DHT22;7272;53.668;9.578;2023-08-08T08:14:18;17.00;99.90
14378;DHT22;7272;53.668;9.578;2023-08-08T08:17:19;16.90;99.90
14378;DHT22;7272;53.668;9.578;2023-08-08T08:20:21;16.90;99.90
14378;DHT22;7272;53.668;9.578;2023-08-08T08:23:22;16.70;99.90
14378;DHT22;7272;53.668;9.578;2023-08-08T08:26:23;16.60;99.90
14378;DHT22;7272;53.668;9.578;2023-08-08T08:29:25;16.30;99.90
14378;DHT22;7272;53.668;9.578;2023-08-08T08:32:26;16.30;99.90
14378;DHT22;7272;53.668;9.578;2023-08-08T08:35:27;16.20;99.90
14378;DHT22;7272;53.668;9.578;2023-08-08T08:38:29;16.20;99.90
14378;DHT22;7272;53.668;9.578;2023-08-08T08:41:31;16.10;99.90
14378;DHT22;7272;53.668;9.578;2023-08-08T08:44:35;16.10;99.90
14378;DHT22;7272;53.668;9.578;2023-08-08T08:47:37;16.00;99.90
14378;DHT22;7272;53.668;9.578;2023-08-08T08:50:41;16.20;99.90
14378;DHT22;7272;53.668;9.578;2023-08-08T08:53:44;16.20;99.90
14378;DHT22;7272;53.668;9.578;2023-08-08T08:56:47;16.20;99.90
14378;DHT22;7272;53.668;9.578;2023-08-08T08:59:48;16.30;99.90
14378;DHT22;7272;53.668;9.578;2023-08-08T09:02:50;16.40;99.90
14378;DHT22;7272;53.668;9.578;2023-08-08T09:05:51;16.50;99.90
14378;DHT22;7272;53.668;9.578;2023-08-08T09:08:55;16.60;99.90
14378;DHT22;7272;53.668;9.578;2023-08-08T09:11:56;16.60;99.90
14378;DHT22;7272;53.668;9.578;2023-08-08T09:14:58;16.70;99.90
14378;DHT22;7272;53.668;9.578;2023-08-08T09:18:00;16.60;99.90
14378;DHT22;7272;53.668;9.578;2023-08-08T09:21:01;16.50;99.90
14378;DHT22;7272;53.668;9.578;2023-08-08T09:24:03;16.50;99.90
14378;DHT22;7272;53.668;9.578;2023-08-08T09:27:04;16.40;99.90
14378;DHT22;7272;53.668;9.578;2023-08-08T09:30:08;16.20;99.90
14378;DHT22;7272;53.668;9.578;2023-08-08T09:33:11;16.00;99.90
14378;DHT22;7272;53.668;9.578;2023-08-08T09:36:14;15.80;99.90
14378;DHT22;7272;53.668;9.578;2023-08-08T09:39:16;15.60;99.90
14378;DHT22;7272;53.668;9.578;2023-08-08T09:42:18;15.60;99.90
14378;DHT22;7272;53.668;9.578;2023-08-08T09:45:20;15.70;99.90
14378;DHT22;7272;53.668;9.578;2023-08-08T09:48:23;15.70;99.90
14378;DHT22;7272;53.668;9.578;2023-08-08T09:51:30;15.70;99.90
14378;DHT22;7272;53.668;9.578;2023-08-08T09:54:32;15.70;99.90
14378;DHT22;7272;53.668;9.578;2023-08-08T09:57:33;15.60;99.90
14378;DHT22;7272;53.668;9.578;2023-08-08T10:00:36;15.50;99.90
14378;DHT22;7272;53.668;9.578;2023-08-08T10:03:37;15.60;99.90
14378;DHT22;7272;53.668;9.578;2023-08-08T10:06:39;15.90;99.90
14378;DHT22;7272;53.668;9.578;2023-08-08T10:09:40;16.50;99.90
14378;DHT22;7272;53.668;9.578;2023-08-08T10:12:41;17.00;99.90
14378;DHT22;7272;53.668;9.578;2023-08-08T10:15:43;17.20;99.90
14378;DHT22;7272;53.668;9.578;2023-08-08T10:18:45;17.40;99.90
14378;DHT22;7272;53.668;9.578;2023-08-08T10:21:46;17.80;99.90
14378;DHT22;7272;53.668;9.578;2023-08-08T10:24:47;18.00;99.90
14378;DHT22;7272;53.668;9.578;2023-08-08T10:27:49;17.90;99.90
14378;DHT22;7272;53.668;9.578;2023-08-08T10:30:55;17.50;99.90
14378;DHT22;7272;53.668;9.578;2023-08-08T10:34:04;17.10;99.90
14378;DHT22;7272;53.668;9.578;2023-08-08T10:37:09;16.70;99.90
14378;DHT22;7272;53.668;9.578;2023-08-08T10:40:10;16.40;99.90
14378;DHT22;7272;53.668;9.578;2023-08-08T10:43:12;16.10;99.90
14378;DHT22;7272;53.668;9.578;2023-08-08T10:46:14;15.90;99.90
14378;DHT22;7272;53.668;9.578;2023-08-08T10:49:23;16.00;99.90
14378;DHT22;7272;53.668;9.578;2023-08-08T10:52:24;16.10;99.90
14378;DHT22;7272;53.668;9.578;2023-08-08T10:55:27;16.10;99.90
14378;DHT22;7272;53.668;9.578;2023-08-08T10:58:36;16.20;99.90
14378;DHT22;7272;53.668;9.578;2023-08-08T11:01:38;16.20;99.90
14378;DHT22;7272;53.668;9.578;2023-08-08T11:04:44;16.00;99.90
14378;DHT22;7272;53.668;9.578;2023-08-08T11:07:49;15.90;99.90
14378;DHT22;7272;53.668;9.578;2023-08-08T11:10:52;15.80;99.90
14378;DHT22;7272;53.668;9.578;2023-08-08T11:13:53;15.80;99.90
14378;DHT22;7272;53.668;9.578;2023-08-08T11:16:55;15.90;99.90
14378;DHT22;7272;53.668;9.578;2023-08-08T11:19:56;16.30;99.90
14378;DHT22;7272;53.668;9.578;2023-08-08T11:22:58;16.50;99.90
14378;DHT22;7272;53.668;9.578;2023-08-08T11:25:59;16.60;99.90
14378;DHT22;7272;53.668;9.578;2023-08-08T11:29:03;16.90;99.90
14378;DHT22;7272;53.668;9.578;2023-08-08T11:32:06;17.20;99.90
14378;DHT22;7272;53.668;9.578;2023-08-08T11:35:08;17.60;99.90
14378;DHT22;7272;53.668;9.578;2023-08-08T11:38:09;18.10;99.90
14378;DHT22;7272;53.668;9.578;2023-08-08T11:41:11;18.10;99.90
14378;DHT22;7272;53.668;9.578;2023-08-08T11:44:13;18.20;99.90
14378;DHT22;7272;53.668;9.578;2023-08-08T11:47:15;18.10;99.90
14378;DHT22;7272;53.668;9.578;2023-08-08T11:50:19;17.80;99.90
14378;DHT22;7272;53.668;9.578;2023-08-08T11:53:20;17.40;99.90
14378;DHT22;7272;53.668;9.578;2023-08-08T11:56:23;17.30;99.90
14378;DHT22;7272;53.668;9.578;2023-08-08T11:59:25;17.30;99.90
14378;DHT22;7272;53.668;9.578;2023-08-08T12:02:27;17.50;99.90
14378;DHT22;7272;53.668;9.578;2023-08-08T12:05:28;17.50;99.90
14378;DHT22;7272;53.668;9.578;2023-08-08T12:08:30;17.80;99.90
14378;DHT22;7272;53.668;9.578;2023-08-08T12:11:34;18.10;99.90
14378;DHT22;7272;53.668;9.578;2023-08-08T12:14:37;18.30;99.90
14378;DHT22;7272;53.668;9.578;2023-08-08T12:17:39;18.10;99.90
14378;DHT22;7272;53.668;9.578;2023-08-08T12:20:40;18.10;99.90
14378;DHT22;7272;53.668;9.578;2023-08-08T12:23:41;18.40;99.90
14378;DHT22;7272;53.668;9.578;2023-08-08T12:26:43;18.70;99.90
14378;DHT22;7272;53.668;9.578;2023-08-08T12:29:44;18.70;99.90
14378;DHT22;7272;53.668;9.578;2023-08-08T12:32:46;19.00;99.90
14378;DHT22;7272;53.668;9.578;2023-08-08T12:35:47;19.10;99.90
14378;DHT22;7272;53.668;9.578;2023-08-08T12:38:49;18.70;99.90
14378;DHT22;7272;53.668;9.578;2023-08-08T12:41:50;18.30;99.90
14378;DHT22;7272;53.668;9.578;2023-08-08T12:44:53;17.80;99.90
14378;DHT22;7272;53.668;9.578;2023-08-08T12:47:55;17.40;99.90
14378;DHT22;7272;53.668;9.578;2023-08-08T12:50:56;17.10;99.90
14378;DHT22;7272;53.668;9.578;2023-08-08T12:53:58;17.00;99.90
14378;DHT22;7272;53.668;9.578;2023-08-08T12:56:59;17.30;99.90
14378;DHT22;7272;53.668;9.578;2023-08-08T13:00:00;18.00;99.90
14378;DHT22;7272;53.668;9.578;2023-08-08T13:03:02;18.50;99.90
14378;DHT22;7272;53.668;9.578;2023-08-08T13:06:03;18.70;99.90
14378;DHT22;7272;53.668;9.578;2023-08-08T13:09:05;18.60;99.90
14378;DHT22;7272;53.668;9.578;2023-08-08T13:12:06;18.70;99.90
14378;DHT22;7272;53.668;9.578;2023-08-08T13:15:08;18.60;99.90
14378;DHT22;7272;53.668;9.578;2023-08-08T13:18:10;18.60;99.90
14378;DHT22;7272;53.668;9.578;2023-08-08T13:21:11;18.60;99.90
14378;DHT22;7272;53.668;9.578;2023-08-08T13:24:13;18.60;99.90
14378;DHT22;7272;53.668;9.578;2023-08-08T13:27:14;18.40;99.90
14378;DHT22;7272;53.668;9.578;2023-08-08T13:30:15;17.90;99.90
14378;DHT22;7272;53.668;9.578;2023-08-08T13:33:17;17.40;99.90
14378;DHT22;7272;53.668;9.578;2023-08-08T13:36:18;17.00;99.90
14378;DHT22;7272;53.668;9.578;2023-08-08T13:39:20;16.80;99.90
14378;DHT22;7272;53.668;9.578;2023-08-08T13:42:21;16.70;99.90
14378;DHT22;7272;53.668;9.578;2023-08-08T13:45:23;16.70;99.90
14378;DHT22;7272;53.668;9.578;2023-08-08T13:48:24;16.70;99.90
14378;DHT22;7272;53.668;9.578;2023-08-08T13:51:26;16.70;99.90
14378;DHT22;7272;53.668;9.578;2023-08-08T13:54:27;16.70;99.90
14378;DHT22;7272;53.668;9.578;2023-08-08T13:57:28;16.70;99.90
14378;DHT22;7272;53.668;9.578;2023-08-08T14:00:29;16.80;99.90
14378;DHT22;7272;53.668;9.578;2023-08-08T14:03:31;16.90;99.90
14378;DHT22;7272;53.668;9.578;2023-08-08T14:06:32;17.10;99.90
14378;DHT22;7272;53.668;9.578;2023-08-08T14:09:33;17.20;99.90
14378;DHT22;7272;53.668;9.578;2023-08-08T14:12:35;17.30;99.90
14378;DHT22;7272;53.668;9.578;2023-08-08T14:15:36;17.40;99.90
14378;DHT22;7272;53.668;9.578;2023-08-08T14:18:43;17.50;99.90
14378;DHT22;7272;53.668;9.578;2023-08-08T14:21:45;17.70;99.90
14378;DHT22;7272;53.668;9.578;2023-08-08T14:24:46;17.80;99.90
14378;DHT22;7272;53.668;9.578;2023-08-08T14:27:47;17.70;99.90
14378;DHT22;7272;53.668;9.578;2023-08-08T14:30:48;17.90;99.90
14378;DHT22;7272;53.668;9.578;2023-08-08T14:33:50;18.10;99.90
14378;DHT22;7272;53.668;9.578;2023-08-08T14:36:51;18.40;99.90
14378;DHT22;7272;53.668;9.578;2023-08-08T14:39:53;18.40;99.90
14378;DHT22;7272;53.668;9.578;2023-08-08T14:42:54;18.10;99.90
14378;DHT22;7272;53.668;9.578;2023-08-08T14:45:55;17.80;99.90
14378;DHT22;7272;53.668;9.578;2023-08-08T14:48:57;17.60;99.90
14378;DHT22;7272;53.668;9.578;2023-08-08T14:51:58;17.40;99.90
14378;DHT22;7272;53.668;9.578;2023-08-08T14:54:59;17.30;99.90
14378;DHT22;7272;53.668;9.578;2023-08-08T14:58:00;17.10;99.90
14378;DHT22;7272;53.668;9.578;2023-08-08T15:01:02;16.80;99.90
14378;DHT22;7272;53.668;9.578;2023-08-08T15:04:05;16.60;99.90
14378;DHT22;7272;53.668;9.578;2023-08-08T15:07:06;16.40;99.90
14378;DHT22;7272;53.668;9.578;2023-08-08T15:10:08;16.10;99.90
14378;DHT22;7272;53.668;9.578;2023-08-08T15:13:09;15.90;99.90
14378;DHT22;7272;53.668;9.578;2023-08-08T15:16:11;15.80;99.90
14378;DHT22;7272;53.668;9.578;2023-08-08T15:19:12;15.80;99.90
14378;DHT22;7272;53.668;9.578;2023-08-08T15:22:13;15.80;99.90
14378;DHT22;7272;53.668;9.578;2023-08-08T15:25:15;15.80;99.90
14378;DHT22;7272;53.668;9.578;2023-08-08T15:28:16;15.80;99.90
14378;DHT22;7272;53.668;9.578;2023-08-08T15:31:17;15.70;99.90
14378;DHT22;7272;53.668;9.578;2023-08-08T15:34:19;15.60;99.90
14378;DHT22;7272;53.668;9.578;2023-08-08T15:37:20;15.50;99.90
14378;DHT22;7272;53.668;9.578;2023-08-08T15:40:21;15.40;99.90
14378;DHT22;7272;53.668;9.578;2023-08-08T15:43:22;15.40;99.90
14378;DHT22;7272;53.668;9.578;2023-08-08T15:46:25;15.40;99.90
14378;DHT22;7272;53.668;9.578;2023-08-08T15:49:27;15.40;99.90
14378;DHT22;7272;53.668;9.578;2023-08-08T15:52:28;15.50;99.90
14378;DHT22;7272;53.668;9.578;2023-08-08T15:55:29;15.50;99.90
14378;DHT22;7272;53.668;9.578;2023-08-08T15:58:30;15.50;99.90
14378;DHT22;7272;53.668;9.578;2023-08-08T16:01:33;15.60;99.90
14378;DHT22;7272;53.668;9.578;2023-08-08T16:04:35;15.60;99.90
14378;DHT22;7272;53.668;9.578;2023-08-08T16:07:36;15.50;99.90
14378;DHT22;7272;53.668;9.578;2023-08-08T16:10:37;15.50;99.90
14378;DHT22;7272;53.668;9.578;2023-08-08T16:13:38;15.60;99.90
14378;DHT22;7272;53.668;9.578;2023-08-08T16:16:40;15.60;99.90
14378;DHT22;7272;53.668;9.578;2023-08-08T16:19:42;15.60;99.90
14378;DHT22;7272;53.668;9.578;2023-08-08T16:22:43;15.50;99.90
14378;DHT22;7272;53.668;9.578;2023-08-08T16:25:44;15.50;99.90
14378;DHT22;7272;53.668;9.578;2023-08-08T16:28:45;15.50;99.90
14378;DHT22;7272;53.668;9.578;2023-08-08T16:31:46;15.60;99.90
14378;DHT22;7272;53.668;9.578;2023-08-08T16:34:48;15.70;99.90
14378;DHT22;7272;53.668;9.578;2023-08-08T16:37:49;15.80;99.90
14378;DHT22;7272;53.668;9.578;2023-08-08T16:40:50;15.80;99.90
14378;DHT22;7272;53.668;9.578;2023-08-08T16:44:00;15.60;99.90
14378;DHT22;7272;53.668;9.578;2023-08-08T16:47:02;15.60;99.90
14378;DHT22;7272;53.668;9.578;2023-08-08T16:50:05;15.70;99.90
14378;DHT22;7272;53.668;9.578;2023-08-08T16:53:07;15.80;99.90
14378;DHT22;7272;53.668;9.578;2023-08-08T16:56:08;15.80;99.90
14378;DHT22;7272;53.668;9.578;2023-08-08T16:59:09;15.80;99.90
14378;DHT22;7272;53.668;9.578;2023-08-08T17:02:10;15.80;99.90
14378;DHT22;7272;53.668;9.578;2023-08-08T17:05:12;15.90;99.90
14378;DHT22;7272;53.668;9.578;2023-08-08T17:08:14;16.00;99.90
14378;DHT22;7272;53.668;9.578;2023-08-08T17:11:15;16.00;99.90
14378;DHT22;7272;53.668;9.578;2023-08-08T17:14:17;16.10;99.90
14378;DHT22;7272;53.668;9.578;2023-08-08T17:17:18;16.20;99.90
14378;DHT22;7272;53.668;9.578;2023-08-08T17:20:20;16.30;99.90
14378;DHT22;7272;53.668;9.578;2023-08-08T17:23:21;16.30;99.90
14378;DHT22;7272;53.668;9.578;2023-08-08T17:26:23;16.30;99.90
14378;DHT22;7272;53.668;9.578;2023-08-08T17:29:24;16.20;99.90
14378;DHT22;7272;53.668;9.578;2023-08-08T17:32:25;16.20;99.90
14378;DHT22;7272;53.668;9.578;2023-08-08T17:35:27;16.00;99.90
14378;DHT22;7272;53.668;9.578;2023-08-08T17:38:28;16.00;99.90
14378;DHT22;7272;53.668;9.578;2023-08-08T17:41:29;15.80;99.90
14378;DHT22;7272;53.668;9.578;2023-08-08T17:44:30;15.90;99.90
14378;DHT22;7272;53.668;9.578;2023-08-08T17:47:32;15.90;99.90
14378;DHT22;7272;53.668;9.578;2023-08-08T17:50:34;15.80;99.90
14378;DHT22;7272;53.668;9.578;2023-08-08T17:53:35;15.80;99.90
14378;DHT22;7272;53.668;9.578;2023-08-08T17:56:36;15.80;99.90
14378;DHT22;7272;53.668;9.578;2023-08-08T17:59:37;15.80;99.90
14378;DHT22;7272;53.668;9.578;2023-08-08T18:02:39;15.80;99.90
14378;DHT22;7272;53.668;9.578;2023-08-08T18:05:40;15.80;99.90
14378;DHT22;7272;53.668;9.578;2023-08-08T18:08:42;15.90;99.90
14378;DHT22;7272;53.668;9.578;2023-08-08T18:11:43;15.90;99.90
14378;DHT22;7272;53.668;9.578;2023-08-08T18:14:46;15.90;99.90
14378;DHT22;7272;53.668;9.578;2023-08-08T18:17:48;15.80;99.90
14378;DHT22;7272;53.668;9.578;2023-08-08T18:20:49;15.60;99.90
14378;DHT22;7272;53.668;9.578;2023-08-08T18:23:51;15.60;99.90
14378;DHT22;7272;53.668;9.578;2023-08-08T18:26:52;15.50;99.90
14378;DHT22;7272;53.668;9.578;2023-08-08T18:29:53;15.50;99.90
14378;DHT22;7272;53.668;9.578;2023-08-08T18:32:55;15.50;99.90
14378;DHT22;7272;53.668;9.578;2023-08-08T18:35:58;15.50;99.90
14378;DHT22;7272;53.668;9.578;2023-08-08T18:39:04;15.50;99.90
14378;DHT22;7272;53.668;9.578;2023-08-08T18:42:06;15.50;99.90
14378;DHT22;7272;53.668;9.578;2023-08-08T18:45:08;15.40;99.90
14378;DHT22;7272;53.668;9.578;2023-08-08T18:48:10;15.40;99.90
14378;DHT22;7272;53.668;9.578;2023-08-08T18:51:11;15.40;99.90
14378;DHT22;7272;53.668;9.578;2023-08-08T18:54:13;15.40;99.90
14378;DHT22;7272;53.668;9.578;2023-08-08T18:57:15;15.40;99.90
14378;DHT22;7272;53.668;9.578;2023-08-08T19:00:16;15.30;99.90
14378;DHT22;7272;53.668;9.578;2023-08-08T19:03:18;15.20;99.90
14378;DHT22;7272;53.668;9.578;2023-08-08T19:06:19;15.20;99.90
14378;DHT22;7272;53.668;9.578;2023-08-08T19:09:21;15.20;99.90
14378;DHT22;7272;53.668;9.578;2023-08-08T19:12:22;15.10;99.90
14378;DHT22;7272;53.668;9.578;2023-08-08T19:15:23;15.10;99.90
14378;DHT22;7272;53.668;9.578;2023-08-08T19:18:25;15.20;99.90
14378;DHT22;7272;53.668;9.578;2023-08-08T19:21:27;15.10;99.90
14378;DHT22;7272;53.668;9.578;2023-08-08T19:24:28;15.10;99.90